createdAt,value
2018-08-22T00:04:31.673Z,6.80
2018-08-22T00:09:35.641Z,7.57
2018-08-22T00:14:39.618Z,6.83
2018-08-22T00:19:44.478Z,7.00
2018-08-22T00:24:46.756Z,6.93
2018-08-22T00:29:48.886Z,7.20
2018-08-22T00:34:51.075Z,7.33
2018-08-22T00:39:53.212Z,6.90
2018-08-22T00:44:55.773Z,7.00
2018-08-22T00:50:00.789Z,6.90
2018-08-22T00:55:04.685Z,8.03
2018-08-22T01:00:06.829Z,7.10
2018-08-22T01:05:11.699Z,7.00
2018-08-22T01:10:14.342Z,7.30
2018-08-22T01:15:17.732Z,7.03
2018-08-22T01:20:23.239Z,7.13
2018-08-22T01:25:25.465Z,7.63
2018-08-22T01:30:28.537Z,7.57
2018-08-22T01:35:31.554Z,7.83
2018-08-22T01:40:33.701Z,8.33
2018-08-22T01:45:35.861Z,7.27
2018-08-22T01:50:41.337Z,7.87
2018-08-22T01:55:43.501Z,8.43
2018-08-22T02:00:48.355Z,8.63
2018-08-22T02:05:50.736Z,8.43
2018-08-22T02:10:52.902Z,7.43
2018-08-22T02:15:56.898Z,7.37
2018-08-22T02:20:59.437Z,8.63
2018-08-22T02:26:02.890Z,8.20
2018-08-22T02:31:06.475Z,8.03
2018-08-22T02:36:10.308Z,7.90
2018-08-22T02:41:12.742Z,8.30
2018-08-22T02:46:16.193Z,7.97
2018-08-22T02:51:18.326Z,8.20
2018-08-22T02:56:23.698Z,8.13
2018-08-22T03:01:26.330Z,7.73
2018-08-22T03:06:30.749Z,7.90
2018-08-22T03:11:32.906Z,8.00
2018-08-22T03:16:35.054Z,8.27
2018-08-22T03:21:37.205Z,7.30
2018-08-22T03:26:41.345Z,8.60
2018-08-22T03:31:43.506Z,9.00
2018-08-22T03:36:48.066Z,8.40
2018-08-22T03:41:51.767Z,8.63
2018-08-22T03:46:53.930Z,8.40
2018-08-22T03:52:00.846Z,8.83
2018-08-22T03:57:03.230Z,8.63
2018-08-22T04:02:05.941Z,8.40
2018-08-22T04:07:08.112Z,9.13
2018-08-22T04:12:13.330Z,8.83
2018-08-22T04:17:16.691Z,7.97
2018-08-22T04:22:22.929Z,8.57
2018-08-22T04:27:25.421Z,9.10
2018-08-22T04:32:28.053Z,8.43
2018-08-22T04:37:31.436Z,9.53
2018-08-22T04:42:36.783Z,9.37
2018-08-22T04:47:39.100Z,9.10
2018-08-22T04:52:41.349Z,9.30
2018-08-22T04:57:43.496Z,10.07
2018-08-22T05:02:45.862Z,10.40
2018-08-22T05:07:48.013Z,10.60
2018-08-22T05:12:50.155Z,10.40
2018-08-22T05:17:52.613Z,9.90
2018-08-22T05:22:56.786Z,10.50
2018-08-22T05:27:59.882Z,9.80
2018-08-22T05:33:02.202Z,10.57
2018-08-22T05:38:04.728Z,10.40
2018-08-22T05:43:07.906Z,10.83
2018-08-22T05:48:10.057Z,11.03
2018-08-22T05:53:12.252Z,10.47
2018-08-22T05:58:14.910Z,11.23
2018-08-22T06:03:17.749Z,11.10
2018-08-22T06:08:20.970Z,10.13
2018-08-22T06:13:24.694Z,10.23
2018-08-22T06:18:27.983Z,11.60
2018-08-22T06:23:30.998Z,11.53
2018-08-22T06:28:34.502Z,12.80
2018-08-22T06:33:37.667Z,13.30
2018-08-22T06:38:40.168Z,12.80
2018-08-22T06:43:42.406Z,12.23
2018-08-22T06:48:45.595Z,11.20
2018-08-22T06:53:48.829Z,11.10
2018-08-22T06:58:51.644Z,11.40
2018-08-22T07:03:53.741Z,10.20
2018-08-22T07:08:56.415Z,11.03
2018-08-22T07:13:59.036Z,10.17
2018-08-22T07:19:01.348Z,10.40
2018-08-22T07:24:03.536Z,9.23
2018-08-22T07:29:05.709Z,9.50
2018-08-22T07:34:07.856Z,9.50
2018-08-22T07:39:11.876Z,8.40
2018-08-22T07:44:14.331Z,8.83
2018-08-22T07:49:16.631Z,10.10
2018-08-22T07:54:19.000Z,9.40
2018-08-22T07:59:21.260Z,9.17
2018-08-22T08:04:23.411Z,8.00
2018-08-22T08:09:25.738Z,9.30
2018-08-22T08:14:28.002Z,8.83
2018-08-22T08:19:30.166Z,8.63
2018-08-22T08:24:32.338Z,7.60
2018-08-22T08:29:34.482Z,7.53
2018-08-22T08:34:36.638Z,7.40
2018-08-22T08:39:38.954Z,7.57
2018-08-22T08:44:41.252Z,7.47
2018-08-22T08:49:43.649Z,7.17
2018-08-22T08:54:45.889Z,6.63
2018-08-22T08:59:49.091Z,6.97
2018-08-22T09:04:51.245Z,7.67
2018-08-22T09:09:53.406Z,7.47
2018-08-22T09:19:57.771Z,7.40
2018-08-22T09:24:59.926Z,7.00
2018-08-22T09:30:02.192Z,7.23
2018-08-22T09:35:04.341Z,6.87
2018-08-22T09:40:06.511Z,6.73
2018-08-22T09:45:08.769Z,6.77
2018-08-22T09:50:11.123Z,7.37
2018-08-22T09:55:13.270Z,6.70
2018-08-22T10:00:21.108Z,6.50
2018-08-22T10:05:23.310Z,7.00
2018-08-22T10:10:25.454Z,7.37
2018-08-22T10:15:27.585Z,6.47
2018-08-22T10:20:29.837Z,6.70
2018-08-22T10:25:32.066Z,7.47
2018-08-22T10:30:34.225Z,7.07
2018-08-22T10:35:36.398Z,6.93
2018-08-22T10:40:38.555Z,6.80
2018-08-22T10:45:40.714Z,7.33
2018-08-22T10:50:42.908Z,7.10
2018-08-22T10:55:45.669Z,6.60
2018-08-22T11:00:47.834Z,6.70
2018-08-22T11:05:50.154Z,7.03
2018-08-22T11:10:52.348Z,6.20
2018-08-22T11:15:54.595Z,5.90
2018-08-22T11:21:08.310Z,5.90
2018-08-22T11:26:22.018Z,5.93
2018-08-22T11:31:35.745Z,5.87
2018-08-22T11:36:37.091Z,5.87
2018-08-22T11:41:39.238Z,6.00
2018-08-22T11:46:41.415Z,6.00
2018-08-22T11:51:43.530Z,6.30
2018-08-22T11:56:45.698Z,6.37
2018-08-22T12:01:48.287Z,5.93
2018-08-22T12:06:50.845Z,6.33
2018-08-22T12:11:53.060Z,11.23
2018-08-22T12:16:55.303Z,6.00
2018-08-22T12:21:57.533Z,5.80
2018-08-22T12:26:59.721Z,6.00
2018-08-22T12:32:01.884Z,5.70
2018-08-22T12:37:04.525Z,5.60
2018-08-22T12:42:06.693Z,6.10
2018-08-22T12:47:08.866Z,5.70
2018-08-22T12:52:11.085Z,6.00
2018-08-22T12:57:13.484Z,5.70
2018-08-22T13:02:15.587Z,6.60
2018-08-22T13:07:17.749Z,5.50
2018-08-22T13:12:19.897Z,6.13
2018-08-22T13:17:22.137Z,5.60
2018-08-22T13:22:24.281Z,5.63
2018-08-22T13:27:26.421Z,5.90
2018-08-22T13:32:29.205Z,5.40
2018-08-22T13:37:31.349Z,5.90
2018-08-22T13:42:34.269Z,5.17
2018-08-22T13:47:36.417Z,5.07
2018-08-22T13:52:38.566Z,4.20
2018-08-22T13:57:40.857Z,3.60
2018-08-22T14:02:43.061Z,3.93
2018-08-22T14:07:45.341Z,4.30
2018-08-22T14:12:47.652Z,3.93
2018-08-22T14:17:49.962Z,4.43
2018-08-22T14:22:52.318Z,4.03
2018-08-22T14:27:54.690Z,4.50
2018-08-22T14:32:56.857Z,4.40
2018-08-22T14:37:59.133Z,4.10
2018-08-22T14:43:01.305Z,4.50
2018-08-22T14:48:03.626Z,4.47
2018-08-22T14:53:05.884Z,4.20
2018-08-22T14:58:08.116Z,4.47
2018-08-22T15:03:10.553Z,4.90
2018-08-22T15:08:12.532Z,4.10
2018-08-22T15:13:14.719Z,4.20
2018-08-22T15:18:16.916Z,4.27
2018-08-22T15:23:19.127Z,4.33
2018-08-22T15:28:21.307Z,4.63
2018-08-22T15:33:23.447Z,4.50
2018-08-22T15:38:25.652Z,5.93
2018-08-22T15:43:27.817Z,4.60
2018-08-22T15:48:29.970Z,4.40
2018-08-22T15:53:32.221Z,4.87
2018-08-22T15:58:34.394Z,4.97
2018-08-22T16:03:36.545Z,4.50
2018-08-22T16:08:38.693Z,4.80
2018-08-22T16:13:40.851Z,4.57
2018-08-22T16:18:43.006Z,4.53
2018-08-22T16:23:45.793Z,4.90
2018-08-22T16:28:56.269Z,4.70
2018-08-22T16:33:58.406Z,5.10
2018-08-22T16:39:00.921Z,4.60
2018-08-22T16:49:07.513Z,4.60
2018-08-22T16:54:09.933Z,4.60
2018-08-22T16:59:12.961Z,4.83
2018-08-22T17:04:15.113Z,4.60
2018-08-22T17:09:17.341Z,4.70
2018-08-22T17:14:19.470Z,4.90
2018-08-22T17:19:21.613Z,4.80
2018-08-22T17:24:23.828Z,4.33
2018-08-22T17:29:25.994Z,5.13
2018-08-22T17:34:28.134Z,4.50
2018-08-22T17:39:31.553Z,4.40
2018-08-22T17:44:33.706Z,4.80
2018-08-22T17:49:35.848Z,4.80
2018-08-22T17:54:37.990Z,5.40
2018-08-22T17:59:41.124Z,6.70
2018-08-22T18:04:51.463Z,6.00
2018-08-22T18:09:53.705Z,5.87
2018-08-22T18:14:56.945Z,6.23
2018-08-22T18:19:59.485Z,5.30
2018-08-22T18:25:01.654Z,5.50
2018-08-22T18:30:03.869Z,5.33
2018-08-22T18:35:08.923Z,5.33
2018-08-22T18:40:23.802Z,4.90
2018-08-22T18:45:26.492Z,4.83
2018-08-22T18:50:28.703Z,5.40
2018-08-22T18:55:32.301Z,5.53
2018-08-22T19:00:35.891Z,4.97
2018-08-22T19:05:38.101Z,5.37
2018-08-22T19:10:41.625Z,5.30
2018-08-22T19:15:49.237Z,5.23
2018-08-22T19:20:53.573Z,5.00
2018-08-22T19:25:56.375Z,5.07
2018-08-22T19:30:58.608Z,5.37
2018-08-22T19:36:00.869Z,4.93
2018-08-22T19:41:18.898Z,5.27
2018-08-22T19:46:21.489Z,5.47
2018-08-22T19:51:23.648Z,5.50
2018-08-22T19:56:26.634Z,5.40
2018-08-22T20:01:30.308Z,5.30
2018-08-22T20:06:32.542Z,5.40
2018-08-22T20:11:34.789Z,5.20
2018-08-22T20:16:37.110Z,6.13
2018-08-22T20:21:40.958Z,5.37
2018-08-22T20:26:48.589Z,5.57
2018-08-22T20:31:50.737Z,5.57
2018-08-22T20:36:52.941Z,5.10
2018-08-22T20:42:01.579Z,5.20
2018-08-22T20:47:03.712Z,5.70
2018-08-22T20:52:05.850Z,6.07
2018-08-22T20:57:10.534Z,6.07
2018-08-22T21:02:12.749Z,6.00
2018-08-22T21:07:25.265Z,5.80
2018-08-22T21:12:27.460Z,6.40
2018-08-22T21:17:29.605Z,5.80
2018-08-22T21:22:31.987Z,6.40
2018-08-22T21:27:34.334Z,6.10
2018-08-22T21:32:36.631Z,6.63
2018-08-22T21:37:39.282Z,5.83
2018-08-22T21:42:43.024Z,5.80
2018-08-22T21:47:45.233Z,6.10
2018-08-22T21:52:52.721Z,5.87
2018-08-22T21:57:55.894Z,5.80
2018-08-22T22:02:58.898Z,6.40
2018-08-22T22:08:02.578Z,6.40
2018-08-22T22:13:05.533Z,6.57
2018-08-22T22:18:07.930Z,6.30
2018-08-22T22:23:10.081Z,6.57
2018-08-22T22:28:12.499Z,6.20
2018-08-22T22:33:14.757Z,5.33
2018-08-22T22:38:16.941Z,5.90
2018-08-22T22:43:19.106Z,5.43
2018-08-22T22:48:34.238Z,5.40
2018-08-22T22:53:36.650Z,6.00
2018-08-22T22:58:38.850Z,6.07
2018-08-22T23:03:41.317Z,5.70
2018-08-22T23:08:43.925Z,5.63
2018-08-22T23:13:46.145Z,6.03
2018-08-22T23:18:49.596Z,5.47
2018-08-22T23:23:52.497Z,5.87
2018-08-22T23:28:54.659Z,6.10
2018-08-22T23:33:57.410Z,6.20
2018-08-22T23:38:59.597Z,6.40
2018-08-22T23:44:01.763Z,6.60
2018-08-22T23:49:03.928Z,5.97
2018-08-22T23:54:06.049Z,6.17
2018-08-22T23:59:08.196Z,6.77
